Time;durP1;ratioP1;P1;durP2;ratioP2;P2;SDS_P1;SDS_P2;PMS_P1;PMS_P2;Temp;Humidity;BMP_temperature;BMP_pressure;BME280_temperature;BME280_humidity;BME280_pressure;Samples;Min_cycle;Max_cycle;Signal;HPM_P1;HPM_P2
2022/08/20 00:02:40;;;;;;;5.87;2.43;;;;;;;24.17;49.28;101491.44;16146175;19;128917;-69
2022/08/20 00:08:05;;;;;;;9.75;2.15;;;;;;;24.15;49.29;101500.06;16139439;19;131135;-69
2022/08/20 00:13:34;;;;;;;6.88;1.83;;;;;;;24.16;48.91;101495.34;16145772;19;129811;-66
2022/08/20 00:18:56;;;;;;;8.07;1.98;;;;;;;24.15;48.98;101504.84;16143639;19;129307;-71
2022/08/20 00:24:17;;;;;;;5.05;1.50;;;;;;;24.13;48.79;101499.50;16144846;19;129607;-60
2022/08/20 00:29:39;;;;;;;6.65;1.90;;;;;;;24.12;48.89;101512.66;16143810;19;129419;-64
2022/08/20 00:35:01;;;;;;;8.63;1.70;;;;;;;24.12;49.06;101506.22;16143082;19;129766;-61
2022/08/20 00:40:29;;;;;;;4.03;1.70;;;;;;;24.11;48.70;101508.16;16143891;19;128911;-61
2022/08/20 00:45:55;;;;;;;6.22;1.70;;;;;;;24.14;48.50;101517.97;16141577;19;130340;-61
2022/08/20 00:51:32;;;;;;;5.07;1.55;;;;;;;24.12;48.70;101500.66;16141947;19;129189;-61
2022/08/20 00:57:21;;;;;;;5.90;1.70;;;;;;;24.11;48.62;101513.75;16134200;19;130873;-60
2022/08/20 01:02:45;;;;;;;4.97;2.05;;;;;;;24.09;49.01;101510.38;16142099;19;129954;-60
2022/08/20 01:08:08;;;;;;;5.20;1.42;;;;;;;24.09;48.72;101507.59;16137435;19;129643;-61
2022/08/20 01:13:30;;;;;;;2.15;1.23;;;;;;;24.08;48.66;101507.88;16138327;19;131502;-61
2022/08/20 01:18:53;;;;;;;7.80;1.58;;;;;;;24.08;48.58;101511.50;16138148;19;129140;-60
2022/08/20 01:24:33;;;;;;;3.22;1.40;;;;;;;24.08;48.67;101514.28;16140890;19;129491;-60
2022/08/20 01:29:55;;;;;;;4.38;1.55;;;;;;;24.07;48.56;101514.56;16138516;19;130137;-60
2022/08/20 01:35:21;;;;;;;4.35;1.33;;;;;;;24.07;48.58;101518.19;16139342;19;129422;-60
2022/08/20 01:41:05;;;;;;;4.72;1.70;;;;;;;24.07;48.71;101522.97;16134366;19;129324;-60
2022/08/20 01:46:31;;;;;;;1.85;1.35;;;;;;;24.06;48.12;101524.91;16135847;19;129861;-60
2022/08/20 01:52:04;;;;;;;3.88;1.48;;;;;;;24.05;48.60;101520.44;16136474;19;129512;-60
2022/08/20 01:57:28;;;;;;;4.57;1.40;;;;;;;24.04;48.67;101517.91;16137989;19;130263;-61
2022/08/20 02:02:50;;;;;;;3.22;1.55;;;;;;;24.04;48.48;101520.69;16137512;19;129934;-61
2022/08/20 02:08:11;;;;;;;2.97;1.50;;;;;;;24.04;48.57;101517.91;16145605;19;130031;-60
2022/08/20 02:13:33;;;;;;;7.53;1.35;;;;;;;24.03;48.54;101524.59;16151481;19;129490;-60
2022/08/20 02:18:59;;;;;;;4.70;1.38;;;;;;;24.02;48.09;101525.72;16146248;19;129098;-60
2022/08/20 02:24:21;;;;;;;4.70;1.50;;;;;;;24.01;48.52;101526.81;16151165;19;129311;-60
2022/08/20 02:29:45;;;;;;;3.33;1.45;;;;;;;24.02;48.37;101525.72;16143686;19;130594;-61
2022/08/20 02:35:10;;;;;;;3.08;1.40;;;;;;;24.00;48.01;101516.78;16149793;19;129619;-60
2022/08/20 02:40:32;;;;;;;2.55;1.30;;;;;;;24.00;48.45;101527.94;16150051;19;129799;-60
2022/08/20 02:45:54;;;;;;;3.60;1.25;;;;;;;23.99;48.19;101526.28;16148843;19;130235;-61
2022/08/20 02:51:16;;;;;;;4.80;1.50;;;;;;;23.99;48.24;101523.47;16148930;19;129397;-61
2022/08/20 02:56:51;;;;;;;2.00;1.20;;;;;;;23.99;48.23;101520.69;16143624;19;129478;-60
2022/08/20 03:02:14;;;;;;;4.40;1.45;;;;;;;23.99;48.11;101526.28;16151974;19;131632;-61
2022/08/20 03:07:46;;;;;;;4.88;1.50;;;;;;;23.97;48.24;101524.59;16145015;19;129291;-60
2022/08/20 03:13:12;;;;;;;3.22;1.23;;;;;;;23.96;48.28;101525.69;16146881;19;128871;-60
2022/08/20 03:18:41;;;;;;;3.90;1.20;;;;;;;23.95;48.34;101524.00;16141203;19;129091;-61
2022/08/20 03:24:04;;;;;;;4.13;1.17;;;;;;;23.95;48.34;101514.75;16147375;19;129127;-60
2022/08/20 03:29:26;;;;;;;2.58;1.05;;;;;;;23.94;48.13;101513.06;16143271;19;129451;-60
2022/08/20 03:34:47;;;;;;;2.70;1.33;;;;;;;23.93;48.16;101515.03;16143315;19;130141;-61
2022/08/20 03:40:14;;;;;;;1.88;1.17;;;;;;;23.92;48.12;101530.13;16146047;19;129061;-60
2022/08/20 03:45:38;;;;;;;3.00;1.10;;;;;;;23.92;48.14;101532.09;16145009;19;129242;-60
2022/08/20 03:51:00;;;;;;;2.17;1.00;;;;;;;23.92;48.11;101543.25;16148091;19;129424;-59
2022/08/20 03:56:22;;;;;;;2.35;1.05;;;;;;;23.91;48.28;101545.19;16141342;19;129079;-60
2022/08/20 04:01:43;;;;;;;2.65;1.15;;;;;;;23.90;48.07;101551.91;16176542;19;129820;-59
2022/08/20 04:07:24;;;;;;;3.72;1.30;;;;;;;23.91;48.11;101553.59;16188407;19;128560;-61
2022/08/20 04:12:46;;;;;;;3.25;1.10;;;;;;;23.88;48.26;101553.28;16191731;19;128802;-59
2022/08/20 04:18:19;;;;;;;2.35;1.10;;;;;;;23.88;47.97;101556.91;16193102;19;130040;-59
2022/08/20 04:23:41;;;;;;;2.08;1.17;;;;;;;23.89;48.13;101564.19;16184316;19;128988;-58
2022/08/20 04:29:03;;;;;;;1.95;1.20;;;;;;;23.88;48.02;101562.50;16178656;19;130197;-59
2022/08/20 04:34:25;;;;;;;2.20;1.02;;;;;;;23.86;47.94;101573.13;16184620;19;129042;-59
2022/08/20 04:40:52;;;;;;;2.33;1.08;;;;;;;23.86;47.83;101567.53;16187143;19;128619;-59
2022/08/20 04:45:31;;;;;;;1.85;1.00;;;;;;;23.86;47.98;101556.34;16183128;19;128692;-58
2022/08/20 04:50:54;;;;;;;3.45;1.08;;;;;;;23.87;47.99;101569.22;16174574;19;129962;-60
2022/08/20 04:56:24;;;;;;;3.83;1.15;;;;;;;23.85;47.91;101582.59;16135596;19;130031;-59
2022/08/20 05:01:46;;;;;;;2.80;1.10;;;;;;;23.85;48.00;101581.75;16139760;19;129309;-60
2022/08/20 05:07:10;;;;;;;2.15;0.90;;;;;;;23.84;47.93;101594.88;16138702;19;129551;-60
2022/08/20 05:12:31;;;;;;;2.97;1.00;;;;;;;23.83;48.26;101590.41;16135026;19;128994;-60
2022/08/20 05:17:56;;;;;;;2.53;0.77;;;;;;;23.84;48.25;101588.44;16139623;19;130094;-60
2022/08/20 05:23:19;;;;;;;6.90;1.10;;;;;;;23.82;47.82;101595.13;16138435;19;129722;-60
2022/08/20 05:28:42;;;;;;;2.70;1.02;;;;;;;23.81;47.83;101610.25;16133882;19;130789;-60
2022/08/20 05:34:19;;;;;;;1.58;0.88;;;;;;;23.80;47.81;101616.06;16134152;19;129465;-60
2022/08/20 05:39:41;;;;;;;2.42;1.20;;;;;;;23.81;47.77;101617.75;16137578;19;129821;-60
2022/08/20 05:45:04;;;;;;;3.47;0.82;;;;;;;23.80;47.81;101618.88;16137500;19;129034;-60
2022/08/20 05:50:32;;;;;;;2.88;1.17;;;;;;;23.80;48.14;101627.25;16131038;19;129575;-59
2022/08/20 05:55:53;;;;;;;2.92;1.13;;;;;;;23.80;47.79;101630.91;16131645;19;129875;-60
2022/08/20 06:01:15;;;;;;;1.58;1.10;;;;;;;23.80;47.67;101632.84;16137004;19;130397;-59
2022/08/20 06:06:37;;;;;;;2.28;1.30;;;;;;;23.80;48.07;101635.63;16135540;19;131466;-60
2022/08/20 06:12:08;;;;;;;3.85;1.00;;;;;;;23.79;47.94;101633.94;16131334;19;129892;-60
2022/08/20 06:17:32;;;;;;;1.70;1.08;;;;;;;23.78;48.06;101643.44;16136570;19;129091;-60
2022/08/20 06:22:59;;;;;;;3.00;1.15;;;;;;;23.78;47.67;101638.72;16134750;19;130310;-59
2022/08/20 06:28:22;;;;;;;1.98;1.10;;;;;;;23.77;47.78;101631.44;16130127;19;129079;-60
2022/08/20 06:33:44;;;;;;;3.30;1.15;;;;;;;23.78;47.79;101632.25;16134082;19;129624;-58
2022/08/20 06:39:05;;;;;;;3.13;1.40;;;;;;;23.78;47.61;101629.47;16134632;19;129427;-58
2022/08/20 06:44:27;;;;;;;4.97;1.70;;;;;;;23.80;47.70;101632.84;16134194;19;131322;-56
2022/08/20 06:49:49;;;;;;;5.25;1.30;;;;;;;23.81;47.21;101645.72;16129303;19;130466;-55
2022/08/20 06:55:13;;;;;;;4.25;1.60;;;;;;;23.80;47.60;101641.22;16142914;19;129437;-57
2022/08/20 07:00:37;;;;;;;6.57;1.73;;;;;;;23.80;47.45;101646.81;16150187;19;129574;-57
2022/08/20 07:05:59;;;;;;;5.20;1.55;;;;;;;23.80;47.45;101652.41;16148136;19;129461;-58
2022/08/20 07:11:21;;;;;;;5.07;1.58;;;;;;;23.80;47.54;101663.56;16146025;19;129611;-57
2022/08/20 07:16:49;;;;;;;5.72;1.85;;;;;;;23.80;47.67;101677.53;16145081;19;130446;-57
2022/08/20 07:22:13;;;;;;;4.47;1.90;;;;;;;23.80;47.14;101669.16;16145406;19;129969;-58
2022/08/20 07:27:35;;;;;;;7.70;2.13;;;;;;;23.80;47.50;101686.78;16142257;19;129282;-59
2022/08/20 07:32:57;;;;;;;4.75;1.83;;;;;;;23.80;47.07;101674.75;16142203;19;129854;-58
2022/08/20 07:38:23;;;;;;;9.07;2.42;;;;;;;23.82;47.42;101683.72;16144129;19;130941;-58
2022/08/20 07:43:46;;;;;;;5.77;2.23;;;;;;;23.83;47.32;101682.63;16146768;19;128993;-58
2022/08/20 07:49:08;;;;;;;7.88;2.10;;;;;;;23.87;47.52;101689.38;16140128;19;128889;-58
2022/08/20 07:54:30;;;;;;;14.40;2.53;;;;;;;23.91;47.09;101687.72;16140071;19;131997;-59
2022/08/20 07:59:52;;;;;;;14.48;3.10;;;;;;;23.97;47.25;101685.81;16143046;19;129373;-58
2022/08/20 08:05:15;;;;;;;11.48;3.30;;;;;;;24.03;46.75;101689.50;16145002;19;129367;-59
2022/08/20 08:10:39;;;;;;;15.23;3.83;;;;;;;24.05;47.05;101688.16;16139455;19;128972;-59
2022/08/20 08:16:05;;;;;;;14.63;3.77;;;;;;;24.10;46.71;101688.19;16145505;19;129476;-58
2022/08/20 08:21:28;;;;;;;12.32;3.97;;;;;;;24.12;46.92;101697.16;16143450;19;130323;-58
2022/08/20 08:26:51;;;;;;;11.25;3.78;;;;;;;24.19;47.10;101699.72;16141563;19;128831;-59
2022/08/20 08:32:12;;;;;;;14.38;3.85;;;;;;;24.32;47.15;101697.63;16138607;19;129741;-59
2022/08/20 08:37:36;;;;;;;15.05;4.30;;;;;;;24.39;47.23;101701.88;16141967;19;129592;-55
2022/08/20 08:43:02;;;;;;;14.27;4.47;;;;;;;24.45;47.17;101707.50;16138862;19;128907;-52
2022/08/20 08:48:31;;;;;;;11.13;3.97;;;;;;;24.46;47.12;101701.66;16136672;19;131000;-55
2022/08/20 08:53:54;;;;;;;12.75;4.28;;;;;;;24.51;47.04;101701.69;16139546;19;129559;-55
2022/08/20 08:59:21;;;;;;;17.60;4.85;;;;;;;24.53;46.72;101707.03;16136379;19;130372;-53
2022/08/20 09:04:43;;;;;;;13.38;4.72;;;;;;;24.54;46.77;101705.91;16141172;19;131886;-54
2022/08/20 09:10:06;;;;;;;14.65;4.60;;;;;;;24.57;46.83;101713.75;16137504;19;129157;-55
2022/08/20 09:15:27;;;;;;;15.75;5.40;;;;;;;24.58;46.67;101718.25;16139523;19;129330;-57
2022/08/20 09:20:49;;;;;;;12.10;4.70;;;;;;;24.60;46.41;101710.44;16140583;19;129345;-55
2022/08/20 09:26:12;;;;;;;12.73;4.95;;;;;;;24.62;46.30;101699.81;16136489;19;129459;-56
2022/08/20 09:31:34;;;;;;;10.23;4.28;;;;;;;24.63;46.53;101703.44;16131662;19;128989;-57
2022/08/20 09:36:58;;;;;;;13.82;4.78;;;;;;;24.63;46.41;101704.31;16138511;19;129312;-56
2022/08/20 09:42:29;;;;;;;9.98;4.20;;;;;;;24.61;46.34;101700.94;16138672;19;129035;-55
2022/08/20 09:47:51;;;;;;;12.57;3.95;;;;;;;24.61;46.52;101700.09;16139183;19;130327;-55
2022/08/20 09:53:31;;;;;;;10.20;3.83;;;;;;;24.61;46.16;101695.31;16130933;19;130231;-57
2022/08/20 09:58:54;;;;;;;12.63;4.47;;;;;;;24.56;46.28;101695.28;16137930;19;129520;-55
2022/08/20 10:04:20;;;;;;;12.00;3.97;;;;;;;24.51;46.01;101698.88;16134192;19;129406;-57
2022/08/20 10:09:42;;;;;;;11.15;3.80;;;;;;;24.47;45.80;101703.34;16132856;19;129397;-52
2022/08/20 10:15:04;;;;;;;11.30;3.60;;;;;;;24.42;45.49;101703.31;16138377;19;129402;-55
2022/08/20 10:20:26;;;;;;;13.55;3.22;;;;;;;24.42;45.61;101692.13;16134812;19;129493;-56
2022/08/20 10:25:48;;;;;;;7.63;3.00;;;;;;;24.38;45.44;101702.13;16137387;19;129454;-57
2022/08/20 10:31:11;;;;;;;7.38;2.92;;;;;;;24.37;44.97;101697.69;16144030;19;129526;-52
2022/08/20 10:36:32;;;;;;;9.52;3.10;;;;;;;24.37;44.93;101694.88;16146959;19;129356;-57
2022/08/20 10:41:54;;;;;;;6.00;2.40;;;;;;;24.37;44.46;101701.31;16146792;19;129221;-56
2022/08/20 10:47:19;;;;;;;10.13;2.75;;;;;;;24.37;44.37;101695.72;16145835;19;129343;-54
2022/08/20 10:52:41;;;;;;;8.20;2.67;;;;;;;24.36;44.11;101694.03;16142997;19;130129;-57
2022/08/20 10:58:04;;;;;;;8.57;2.88;;;;;;;24.38;44.09;101686.22;16148027;19;129301;-56
2022/08/20 11:03:26;;;;;;;9.93;2.83;;;;;;;24.36;43.25;101687.59;16148429;19;129442;-58
2022/08/20 11:08:48;;;;;;;8.63;2.20;;;;;;;24.37;43.11;101692.09;16146705;19;130206;-57
2022/08/20 11:14:11;;;;;;;16.95;2.83;;;;;;;24.37;42.29;101684.53;16148533;19;129541;-52
2022/08/20 11:19:41;;;;;;;12.73;2.90;;;;;;;24.37;42.33;101689.28;16147168;19;130057;-51
2022/08/20 11:25:05;;;;;;;5.65;1.73;;;;;;;24.36;42.29;101687.59;16143102;19;130294;-50
2022/08/20 11:30:30;;;;;;;15.10;2.05;;;;;;;24.39;42.33;101687.03;16143289;19;129980;-53
2022/08/20 11:35:52;;;;;;;9.25;1.92;;;;;;;24.37;42.10;101694.88;16148409;19;129652;-52
2022/08/20 11:41:14;;;;;;;14.02;2.53;;;;;;;24.38;41.90;101691.81;16146065;19;129158;-58
2022/08/20 11:46:36;;;;;;;10.02;2.45;;;;;;;24.42;41.67;101680.94;16145313;19;129320;-52
2022/08/20 11:51:57;;;;;;;9.77;2.25;;;;;;;24.41;41.95;101696.00;16140405;19;129197;-53
2022/08/20 11:57:25;;;;;;;8.50;2.42;;;;;;;24.46;41.33;101692.41;16141432;19;131371;-54
2022/08/20 12:02:50;;;;;;;10.75;2.55;;;;;;;24.44;41.12;101687.09;16144894;19;130065;-50
2022/08/20 12:08:15;;;;;;;8.07;1.88;;;;;;;24.46;40.43;101687.69;16144166;19;129101;-51
2022/08/20 12:13:48;;;;;;;9.60;2.08;;;;;;;24.47;40.10;101678.19;16140403;19;128942;-51
2022/08/20 12:19:09;;;;;;;9.15;1.80;;;;;;;24.45;40.21;101686.00;16139271;19;130521;-44
2022/08/20 12:24:31;;;;;;;18.90;2.40;;;;;;;24.46;41.74;101682.09;16138404;19;129395;-57
2022/08/20 12:29:55;;;;;;;23.27;3.05;;;;;;;24.41;40.41;101690.41;16136324;19;129292;-54
2022/08/20 12:35:18;;;;;;;13.38;2.30;;;;;;;24.40;40.01;101677.53;16137423;19;129539;-59
2022/08/20 12:40:40;;;;;;;20.70;3.20;;;;;;;24.42;40.01;101697.69;16136466;19;129964;-57
2022/08/20 12:46:02;;;;;;;20.70;2.47;;;;;;;24.44;39.95;101698.28;16139896;19;128965;-55
2022/08/20 12:51:24;;;;;;;20.75;2.88;;;;;;;24.45;39.48;101686.00;16130864;19;129409;-53
2022/08/20 12:56:46;;;;;;;19.08;2.85;;;;;;;24.45;39.90;101680.41;16134840;19;132239;-52
2022/08/20 13:02:08;;;;;;;15.07;2.60;;;;;;;24.46;40.08;101681.22;16139810;19;129341;-52
2022/08/20 13:07:40;;;;;;;19.80;2.10;;;;;;;24.42;39.05;101680.94;16137224;19;129452;-53
2022/08/20 13:13:02;;;;;;;10.93;2.40;;;;;;;24.42;39.68;101683.72;16138340;19;129379;-57
2022/08/20 13:18:24;;;;;;;11.73;2.15;;;;;;;24.39;39.60;101682.31;16137233;19;129367;-54
2022/08/20 13:23:46;;;;;;;7.60;2.22;;;;;;;24.38;39.35;101683.41;16137705;19;130006;-53
2022/08/20 13:29:08;;;;;;;12.27;2.05;;;;;;;24.39;39.11;101678.66;16134823;19;130134;-51
2022/08/20 13:34:29;;;;;;;10.25;1.95;;;;;;;24.38;39.15;101674.16;16137188;19;129275;-54
2022/08/20 13:39:53;;;;;;;8.90;2.10;;;;;;;24.38;39.61;101685.34;16137747;19;130416;-56
2022/08/20 13:45:15;;;;;;;7.25;2.10;;;;;;;24.37;38.68;101684.53;16137877;19;130288;-55
2022/08/20 13:50:37;;;;;;;6.60;1.80;;;;;;;24.36;39.28;101670.81;16133779;19;130146;-59
2022/08/20 13:55:59;;;;;;;6.18;2.10;;;;;;;24.36;38.63;101677.25;16129947;19;129338;-55
2022/08/20 14:01:21;;;;;;;5.78;1.85;;;;;;;24.37;38.81;101683.69;16142316;19;129990;-58
2022/08/20 14:06:43;;;;;;;7.07;2.20;;;;;;;24.37;38.40;101678.09;16150361;19;130158;-56
2022/08/20 14:12:05;;;;;;;6.50;1.98;;;;;;;24.37;38.43;101676.13;16148024;19;129285;-53
2022/08/20 14:17:30;;;;;;;5.38;1.70;;;;;;;24.40;38.58;101666.34;16150564;19;129035;-58
2022/08/20 14:22:52;;;;;;;8.40;2.03;;;;;;;24.40;37.47;101666.34;16151798;19;129579;-57
2022/08/20 14:28:20;;;;;;;7.00;2.10;;;;;;;24.42;37.39;101675.31;16148756;19;129139;-54
2022/08/20 14:33:42;;;;;;;3.40;1.30;;;;;;;24.41;37.21;101668.91;16147990;19;130292;-55
2022/08/20 14:39:05;;;;;;;4.25;1.60;;;;;;;24.43;38.03;101671.44;16149778;19;129436;-53
2022/08/20 14:44:28;;;;;;;11.10;2.25;;;;;;;24.44;37.53;101656.34;16150444;19;128995;-56
2022/08/20 14:49:52;;;;;;;7.13;1.80;;;;;;;24.42;37.99;101665.00;16147084;19;129486;-56
2022/08/20 14:55:17;;;;;;;6.65;2.00;;;;;;;24.41;37.73;101674.50;16147061;19;130034;-57
2022/08/20 15:00:40;;;;;;;6.95;1.67;;;;;;;24.40;37.75;101671.94;16149104;19;129058;-54
2022/08/20 15:06:03;;;;;;;6.50;1.67;;;;;;;24.40;38.04;101667.22;16148751;19;128883;-57
2022/08/20 15:11:27;;;;;;;4.90;1.50;;;;;;;24.41;38.11;101654.06;16144770;19;129345;-55
2022/08/20 15:16:54;;;;;;;7.43;1.60;;;;;;;24.42;38.14;101658.56;16144278;19;129301;-55
2022/08/20 15:22:17;;;;;;;5.10;1.50;;;;;;;24.41;38.25;101646.53;16148692;19;129806;-54
2022/08/20 15:27:39;;;;;;;6.97;1.48;;;;;;;24.42;38.24;101653.81;16145129;19;132511;-56
2022/08/20 15:33:01;;;;;;;6.93;1.77;;;;;;;24.40;38.14;101664.41;16143825;19;129419;-57
2022/08/20 15:38:23;;;;;;;5.82;1.70;;;;;;;24.39;38.09;101656.28;16145933;19;129100;-52
2022/08/20 15:43:45;;;;;;;4.65;1.77;;;;;;;24.38;37.52;101657.38;16142939;19;129199;-53
2022/08/20 15:49:11;;;;;;;4.65;1.15;;;;;;;24.38;37.75;101661.03;16143900;19;129630;-53
2022/08/20 15:54:33;;;;;;;5.75;1.85;;;;;;;24.35;37.97;101658.78;16143655;19;129533;-52
2022/08/20 15:59:55;;;;;;;3.00;1.35;;;;;;;24.34;38.03;101673.88;16143855;19;129421;-56
2022/08/20 16:05:26;;;;;;;7.30;1.50;;;;;;;24.36;38.16;101670.81;16141930;19;132366;-56
2022/08/20 16:11:14;;;;;;;6.40;1.55;;;;;;;24.36;37.99;101668.03;16142816;19;129642;-55
2022/08/20 16:16:45;;;;;;;7.57;1.77;;;;;;;24.35;38.05;101664.38;16145082;19;128851;-55
2022/08/20 16:22:11;;;;;;;7.18;1.63;;;;;;;24.35;38.07;101666.34;16144872;19;130397;-53
2022/08/20 16:27:39;;;;;;;9.07;2.10;;;;;;;24.35;38.02;101657.94;16144166;19;129797;-58
2022/08/20 16:33:24;;;;;;;11.07;1.90;;;;;;;24.36;38.13;101665.22;16138121;19;129462;-56
2022/08/20 16:38:55;;;;;;;12.77;2.03;;;;;;;24.36;38.24;101670.81;16142728;19;129972;-55
2022/08/20 16:44:32;;;;;;;19.17;2.17;;;;;;;24.39;38.40;101664.66;16140638;19;129488;-59
2022/08/20 16:50:12;;;;;;;31.20;3.40;;;;;;;24.41;38.30;101668.03;16138747;19;129705;-60
2022/08/20 16:55:33;;;;;;;24.23;3.00;;;;;;;24.40;38.54;101666.34;16134880;19;129574;-56
2022/08/20 17:01:24;;;;;;;24.75;2.60;;;;;;;24.41;38.27;101662.47;16139487;19;130156;-59
2022/08/20 17:06:48;;;;;;;15.68;2.25;;;;;;;24.39;38.14;101664.66;16141576;19;129097;-60
2022/08/20 17:12:26;;;;;;;17.85;2.22;;;;;;;24.38;38.69;101665.78;16134404;19;129667;-55
2022/08/20 17:17:48;;;;;;;15.57;2.67;;;;;;;24.34;38.48;101673.03;16138373;19;129515;-55
2022/08/20 17:23:16;;;;;;;15.23;2.00;;;;;;;24.32;38.44;101669.66;16135321;19;130006;-57
2022/08/20 17:28:48;;;;;;;12.40;1.63;;;;;;;24.30;38.70;101671.88;16136725;19;128886;-55
2022/08/20 17:34:19;;;;;;;6.57;1.40;;;;;;;24.27;38.20;101670.47;16137826;19;131600;-56
2022/08/20 17:39:47;;;;;;;5.70;1.60;;;;;;;24.23;38.42;101672.94;16138124;19;129502;-56
2022/08/20 17:45:17;;;;;;;6.68;1.52;;;;;;;24.21;38.37;101680.75;16139284;19;129471;-56
2022/08/20 17:50:41;;;;;;;11.15;1.80;;;;;;;24.16;38.24;101677.88;16135002;19;130010;-56
2022/08/20 17:56:22;;;;;;;4.53;1.55;;;;;;;24.15;38.44;101676.19;16133039;19;129239;-58
2022/08/20 18:01:44;;;;;;;11.73;2.22;;;;;;;24.12;38.60;101683.16;16136460;19;129525;-58
2022/08/20 18:07:05;;;;;;;20.20;2.33;;;;;;;24.10;38.68;101678.97;16139772;19;129470;-60
2022/08/20 18:12:43;;;;;;;10.88;1.75;;;;;;;24.09;38.56;101682.88;16131423;19;129118;-60
2022/08/20 18:18:24;;;;;;;30.13;2.97;;;;;;;24.09;38.12;101682.88;16128831;19;129660;-59
2022/08/20 18:23:51;;;;;;;20.65;2.15;;;;;;;24.06;38.22;101683.38;16137337;19;129414;-49
2022/08/20 18:29:21;;;;;;;17.10;2.08;;;;;;;24.08;37.94;101675.59;16135313;19;129628;-60
2022/08/20 18:34:44;;;;;;;18.77;2.00;;;;;;;24.06;37.67;101684.22;16137896;19;129560;-57
2022/08/20 18:40:15;;;;;;;20.83;2.15;;;;;;;24.05;38.09;101674.19;16136719;19;129250;-55
2022/08/20 18:45:37;;;;;;;10.27;1.83;;;;;;;24.02;37.90;101671.03;16134009;19;129471;-56
2022/08/20 18:51:06;;;;;;;12.05;2.05;;;;;;;24.01;38.00;101680.53;16147331;19;128894;-54
2022/08/20 18:56:41;;;;;;;9.48;1.77;;;;;;;23.96;38.00;101687.78;16141986;19;129343;-54
2022/08/20 19:02:18;;;;;;;13.65;1.90;;;;;;;23.98;38.12;101687.50;16146657;19;129050;-55
2022/08/20 19:07:49;;;;;;;10.02;1.73;;;;;;;23.97;38.25;101685.81;16150686;19;129725;-55
2022/08/20 19:13:35;;;;;;;12.98;1.95;;;;;;;23.97;38.28;101691.41;16144079;19;129427;-51
2022/08/20 19:18:57;;;;;;;;;;;;;;;23.92;38.31;101706.16;16147993;19;129364;-52
2022/08/20 19:24:24;;;;;;;8.10;1.77;;;;;;;23.95;38.29;101704.78;16147586;19;131611;-55
2022/08/20 19:29:48;;;;;;;7.15;1.35;;;;;;;23.91;38.51;101704.47;16145913;19;129203;-56
2022/08/20 19:35:17;;;;;;;5.72;1.73;;;;;;;23.90;38.32;101708.38;16146529;19;129719;-50
2022/08/20 19:40:42;;;;;;;6.32;1.77;;;;;;;23.88;38.39;101710.59;16146546;19;129927;-51
2022/08/20 19:46:07;;;;;;;26.50;3.40;;;;;;;23.86;38.65;101710.03;16147177;19;130705;-51
2022/08/20 19:51:40;;;;;;;12.40;1.80;;;;;;;23.87;38.51;101713.66;16138220;19;130227;-50
2022/08/20 19:57:09;;;;;;;20.83;2.72;;;;;;;23.85;38.80;101713.06;16139647;19;129251;-50
2022/08/20 20:02:32;;;;;;;6.72;1.38;;;;;;;23.86;38.67;101704.44;16143274;19;130256;-51
2022/08/20 20:07:57;;;;;;;9.25;1.67;;;;;;;23.88;38.79;101699.41;16143900;19;129534;-47
2022/08/20 20:13:26;;;;;;;17.67;2.03;;;;;;;23.92;38.91;101710.94;16138795;19;129020;-52
2022/08/20 20:18:56;;;;;;;10.73;1.63;;;;;;;23.91;38.84;101706.44;16142954;19;129271;-51
2022/08/20 20:24:42;;;;;;;12.23;1.38;;;;;;;23.90;39.00;101713.16;16143337;19;129819;-49
2022/08/20 20:30:09;;;;;;;6.70;1.40;;;;;;;23.90;39.09;101708.38;16135205;19;129565;-50
2022/08/20 20:35:33;;;;;;;10.25;1.67;;;;;;;23.90;39.52;101690.78;16142159;19;129392;-53
2022/08/20 20:41:01;;;;;;;10.65;1.60;;;;;;;23.88;39.19;101693.81;16139169;19;129229;-53
2022/08/20 20:46:27;;;;;;;3.97;1.23;;;;;;;23.88;39.32;101691.03;16140912;19;128989;-49
2022/08/20 20:51:54;;;;;;;7.10;1.60;;;;;;;23.88;39.66;101698.59;16134570;19;131010;-51
2022/08/20 20:57:18;;;;;;;5.20;2.00;;;;;;;23.86;39.59;101686.81;16134698;19;131835;-50
2022/08/20 21:02:59;;;;;;;6.78;1.23;;;;;;;23.85;39.58;101688.78;16140161;19;129454;-53
2022/08/20 21:08:24;;;;;;;7.35;1.50;;;;;;;23.85;39.48;101687.94;16133226;19;129457;-51
2022/08/20 21:13:46;;;;;;;3.90;1.10;;;;;;;23.84;39.75;101695.47;16132121;19;131005;-52
2022/08/20 21:19:10;;;;;;;7.32;1.25;;;;;;;23.83;39.79;101691.00;16137394;19;130398;-50
2022/08/20 21:24:32;;;;;;;4.68;1.10;;;;;;;23.83;39.73;101685.41;16136672;19;130619;-51
2022/08/20 21:29:54;;;;;;;2.72;1.00;;;;;;;23.82;39.81;101694.91;16134963;19;129509;-51
2022/08/20 21:35:16;;;;;;;4.18;1.33;;;;;;;23.81;40.21;101707.19;16134870;19;130273;-60
2022/08/20 21:40:38;;;;;;;3.83;1.30;;;;;;;23.81;40.13;101702.44;16136080;19;131484;-64
2022/08/20 21:46:02;;;;;;;2.75;0.98;;;;;;;23.81;40.15;101698.78;16131821;19;129343;-60
2022/08/20 21:51:25;;;;;;;3.25;1.10;;;;;;;23.80;40.21;101694.31;16131807;19;131459;-56
2022/08/20 21:56:53;;;;;;;2.30;1.00;;;;;;;23.80;39.68;101691.53;16131488;19;129655;-58
2022/08/20 22:02:16;;;;;;;3.33;1.33;;;;;;;23.79;40.16;101689.81;16135276;19;130105;-58
2022/08/20 22:07:39;;;;;;;3.38;1.20;;;;;;;23.78;40.09;101685.34;16135275;19;129826;-60
2022/08/20 22:13:01;;;;;;;3.70;1.05;;;;;;;23.77;39.83;101689.25;16131151;19;129679;-57
2022/08/20 22:18:23;;;;;;;2.88;0.82;;;;;;;23.77;40.25;101692.03;16136442;19;130548;-57
2022/08/20 22:23:46;;;;;;;2.25;0.85;;;;;;;23.77;40.06;101686.44;16139664;19;131327;-58
2022/08/20 22:29:09;;;;;;;2.90;1.13;;;;;;;23.77;40.31;101690.09;16148271;19;129044;-52
2022/08/20 22:34:33;;;;;;;2.30;1.10;;;;;;;23.77;40.23;101689.25;16143119;19;129357;-52
2022/08/20 22:39:55;;;;;;;2.03;0.90;;;;;;;23.75;40.24;101685.91;16148831;19;129309;-47
2022/08/20 22:45:18;;;;;;;2.15;1.02;;;;;;;23.74;40.52;101687.81;16147553;19;129746;-47
2022/08/20 22:50:40;;;;;;;3.50;1.00;;;;;;;23.76;40.41;101687.56;16141288;19;128964;-52
2022/08/20 22:56:02;;;;;;;4.55;1.20;;;;;;;23.75;40.28;101683.09;16142692;19;129462;-49
2022/08/20 23:01:25;;;;;;;2.15;0.93;;;;;;;23.74;40.56;101675.81;16144146;19;129720;-55
2022/08/20 23:06:47;;;;;;;3.00;1.30;;;;;;;23.73;40.47;101674.13;16146146;19;131549;-47
2022/08/20 23:12:09;;;;;;;1.83;1.00;;;;;;;23.73;40.48;101674.13;16144262;19;130027;-53
2022/08/20 23:17:32;;;;;;;3.33;1.10;;;;;;;23.72;40.63;101675.22;16147856;19;130059;-47
2022/08/20 23:22:53;;;;;;;1.85;0.85;;;;;;;23.72;40.55;101666.84;16144683;19;129662;-47
2022/08/20 23:28:21;;;;;;;2.60;0.95;;;;;;;23.72;40.53;101664.06;16142919;19;129834;-47
2022/08/20 23:33:42;;;;;;;1.40;0.95;;;;;;;23.72;40.49;101666.84;16139223;19;129000;-49
2022/08/20 23:39:05;;;;;;;3.15;0.95;;;;;;;23.70;40.62;101664.31;16143203;19;129545;-46
2022/08/20 23:44:28;;;;;;;2.08;0.77;;;;;;;23.70;40.61;101671.84;16139949;19;128973;-50
2022/08/20 23:49:50;;;;;;;2.67;1.00;;;;;;;23.69;40.67;101667.38;16141505;19;128996;-50
2022/08/20 23:55:12;;;;;;;3.60;0.98;;;;;;;23.69;40.88;101670.16;16136674;19;129638;-49
